sensor_id;sensor_type;location;lat;lon;timestamp;temperature;humidity
13796;SHT30;40911;51.552;9.874;2022-07-23T00:03:28;17.71;90.29
13796;SHT30;40911;51.552;9.874;2022-07-23T00:05:50;17.32;91.82
13796;SHT30;40911;51.552;9.874;2022-07-23T00:08:11;17.49;90.94
13796;SHT30;40911;51.552;9.874;2022-07-23T00:10:33;17.53;90.57
13796;SHT30;40911;51.552;9.874;2022-07-23T00:12:55;17.32;91.64
13796;SHT30;40911;51.552;9.874;2022-07-23T00:15:16;17.39;90.73
13796;SHT30;40911;51.552;9.874;2022-07-23T00:17:38;17.49;91.44
13796;SHT30;40911;51.552;9.874;2022-07-23T00:20:01;17.32;91.28
13796;SHT30;40911;51.552;9.874;2022-07-23T00:22:23;17.22;91.55
13796;SHT30;40911;51.552;9.874;2022-07-23T00:24:45;17.28;91.21
13796;SHT30;40911;51.552;9.874;2022-07-23T00:27:06;17.19;91.46
13796;SHT30;40911;51.552;9.874;2022-07-23T00:29:28;17.12;91.21
13796;SHT30;40911;51.552;9.874;2022-07-23T00:31:49;17.36;90.65
13796;SHT30;40911;51.552;9.874;2022-07-23T00:34:11;17.31;90.68
13796;SHT30;40911;51.552;9.874;2022-07-23T00:36:34;17.32;90.67
13796;SHT30;40911;51.552;9.874;2022-07-23T00:38:56;17.40;90.27
13796;SHT30;40911;51.552;9.874;2022-07-23T00:41:17;17.40;90.53
13796;SHT30;40911;51.552;9.874;2022-07-23T00:43:39;17.31;90.59
13796;SHT30;40911;51.552;9.874;2022-07-23T00:46:01;17.07;91.70
13796;SHT30;40911;51.552;9.874;2022-07-23T00:48:22;17.28;90.42
13796;SHT30;40911;51.552;9.874;2022-07-23T00:50:44;16.87;91.89
13796;SHT30;40911;51.552;9.874;2022-07-23T00:53:07;16.98;91.63
13796;SHT30;40911;51.552;9.874;2022-07-23T00:55:30;16.84;91.84
13796;SHT30;40911;51.552;9.874;2022-07-23T00:57:53;17.05;92.05
13796;SHT30;40911;51.552;9.874;2022-07-23T01:00:15;16.74;92.65
13796;SHT30;40911;51.552;9.874;2022-07-23T01:02:38;16.71;92.52
13796;SHT30;40911;51.552;9.874;2022-07-23T01:04:59;16.71;92.10
13796;SHT30;40911;51.552;9.874;2022-07-23T01:07:21;16.84;91.88
13796;SHT30;40911;51.552;9.874;2022-07-23T01:09:45;16.73;91.95
13796;SHT30;40911;51.552;9.874;2022-07-23T01:12:07;16.76;91.83
13796;SHT30;40911;51.552;9.874;2022-07-23T01:14:29;16.71;91.82
13796;SHT30;40911;51.552;9.874;2022-07-23T01:16:50;16.68;91.74
13796;SHT30;40911;51.552;9.874;2022-07-23T01:19:13;16.66;91.67
13796;SHT30;40911;51.552;9.874;2022-07-23T01:21:36;16.55;92.21
13796;SHT30;40911;51.552;9.874;2022-07-23T01:23:59;16.50;92.26
13796;SHT30;40911;51.552;9.874;2022-07-23T01:26:21;16.61;92.07
13796;SHT30;40911;51.552;9.874;2022-07-23T01:28:43;16.64;91.93
13796;SHT30;40911;51.552;9.874;2022-07-23T01:31:04;16.80;91.76
13796;SHT30;40911;51.552;9.874;2022-07-23T01:33:26;16.70;91.62
13796;SHT30;40911;51.552;9.874;2022-07-23T01:35:47;16.71;91.62
13796;SHT30;40911;51.552;9.874;2022-07-23T01:38:09;16.74;92.10
13796;SHT30;40911;51.552;9.874;2022-07-23T01:40:32;16.61;91.91
13796;SHT30;40911;51.552;9.874;2022-07-23T01:42:54;16.60;92.21
13796;SHT30;40911;51.552;9.874;2022-07-23T01:45:15;16.71;91.75
13796;SHT30;40911;51.552;9.874;2022-07-23T01:47:37;16.74;92.02
13796;SHT30;40911;51.552;9.874;2022-07-23T01:49:58;16.71;91.85
13796;SHT30;40911;51.552;9.874;2022-07-23T01:52:20;16.74;91.44
13796;SHT30;40911;51.552;9.874;2022-07-23T01:54:41;16.73;91.62
13796;SHT30;40911;51.552;9.874;2022-07-23T01:57:05;16.67;92.16
13796;SHT30;40911;51.552;9.874;2022-07-23T01:59:27;16.87;91.54
13796;SHT30;40911;51.552;9.874;2022-07-23T02:01:49;16.57;91.74
13796;SHT30;40911;51.552;9.874;2022-07-23T02:04:11;16.66;91.88
13796;SHT30;40911;51.552;9.874;2022-07-23T02:06:33;16.78;91.69
13796;SHT30;40911;51.552;9.874;2022-07-23T02:08:54;16.80;91.66
13796;SHT30;40911;51.552;9.874;2022-07-23T02:11:16;16.66;92.18
13796;SHT30;40911;51.552;9.874;2022-07-23T02:13:39;16.47;92.28
13796;SHT30;40911;51.552;9.874;2022-07-23T02:16:01;16.52;92.20
13796;SHT30;40911;51.552;9.874;2022-07-23T02:18:22;16.55;92.07
13796;SHT30;40911;51.552;9.874;2022-07-23T02:20:44;16.19;93.54
13796;SHT30;40911;51.552;9.874;2022-07-23T02:23:05;16.36;92.90
13796;SHT30;40911;51.552;9.874;2022-07-23T02:25:27;16.63;92.32
13796;SHT30;40911;51.552;9.874;2022-07-23T02:27:49;16.74;91.64
13796;SHT30;40911;51.552;9.874;2022-07-23T02:30:12;16.73;91.73
13796;SHT30;40911;51.552;9.874;2022-07-23T02:32:34;16.52;92.83
13796;SHT30;40911;51.552;9.874;2022-07-23T02:34:55;16.66;92.48
13796;SHT30;40911;51.552;9.874;2022-07-23T02:37:17;16.71;92.69
13796;SHT30;40911;51.552;9.874;2022-07-23T02:39:39;16.70;92.74
13796;SHT30;40911;51.552;9.874;2022-07-23T02:42:01;16.67;92.90
13796;SHT30;40911;51.552;9.874;2022-07-23T02:44:23;16.70;92.41
13796;SHT30;40911;51.552;9.874;2022-07-23T02:46:45;16.67;92.40
13796;SHT30;40911;51.552;9.874;2022-07-23T02:49:07;16.57;92.89
13796;SHT30;40911;51.552;9.874;2022-07-23T02:51:29;16.47;93.04
13796;SHT30;40911;51.552;9.874;2022-07-23T02:53:50;16.57;93.52
13796;SHT30;40911;51.552;9.874;2022-07-23T02:56:12;16.71;92.77
13796;SHT30;40911;51.552;9.874;2022-07-23T02:58:33;16.66;93.06
13796;SHT30;40911;51.552;9.874;2022-07-23T03:00:55;16.46;94.42
13796;SHT30;40911;51.552;9.874;2022-07-23T03:03:18;16.63;93.32
13796;SHT30;40911;51.552;9.874;2022-07-23T03:05:40;16.39;93.76
13796;SHT30;40911;51.552;9.874;2022-07-23T03:08:02;16.30;93.64
13796;SHT30;40911;51.552;9.874;2022-07-23T03:10:23;16.28;93.62
13796;SHT30;40911;51.552;9.874;2022-07-23T03:12:45;16.40;93.40
13796;SHT30;40911;51.552;9.874;2022-07-23T03:15:08;16.55;93.93
13796;SHT30;40911;51.552;9.874;2022-07-23T03:17:30;16.60;93.36
13796;SHT30;40911;51.552;9.874;2022-07-23T03:19:53;16.30;94.78
13796;SHT30;40911;51.552;9.874;2022-07-23T03:22:15;16.29;94.57
13796;SHT30;40911;51.552;9.874;2022-07-23T03:24:36;16.42;93.86
13796;SHT30;40911;51.552;9.874;2022-07-23T03:27:16;16.46;93.59
13796;SHT30;40911;51.552;9.874;2022-07-23T03:29:37;16.55;93.47
13796;SHT30;40911;51.552;9.874;2022-07-23T03:31:59;16.56;93.47
13796;SHT30;40911;51.552;9.874;2022-07-23T03:34:21;16.64;92.97
13796;SHT30;40911;51.552;9.874;2022-07-23T03:36:43;16.42;93.84
13796;SHT30;40911;51.552;9.874;2022-07-23T03:39:05;16.30;94.05
13796;SHT30;40911;51.552;9.874;2022-07-23T03:41:27;16.42;94.48
13796;SHT30;40911;51.552;9.874;2022-07-23T03:43:48;16.59;93.67
13796;SHT30;40911;51.552;9.874;2022-07-23T03:46:10;16.57;93.42
13796;SHT30;40911;51.552;9.874;2022-07-23T03:48:32;16.47;94.02
13796;SHT30;40911;51.552;9.874;2022-07-23T03:50:54;16.33;94.33
13796;SHT30;40911;51.552;9.874;2022-07-23T03:53:17;16.35;94.04
13796;SHT30;40911;51.552;9.874;2022-07-23T03:55:38;16.28;94.21
13796;SHT30;40911;51.552;9.874;2022-07-23T03:58:00;16.35;94.10
13796;SHT30;40911;51.552;9.874;2022-07-23T04:00:22;16.32;94.16
13796;SHT30;40911;51.552;9.874;2022-07-23T04:02:43;16.47;94.28
13796;SHT30;40911;51.552;9.874;2022-07-23T04:05:05;16.46;94.40
13796;SHT30;40911;51.552;9.874;2022-07-23T04:07:27;16.47;93.79
13796;SHT30;40911;51.552;9.874;2022-07-23T04:09:50;16.53;93.96
13796;SHT30;40911;51.552;9.874;2022-07-23T04:12:12;16.43;94.52
13796;SHT30;40911;51.552;9.874;2022-07-23T04:14:33;16.50;93.81
13796;SHT30;40911;51.552;9.874;2022-07-23T04:16:55;16.42;94.01
13796;SHT30;40911;51.552;9.874;2022-07-23T04:19:16;16.15;94.52
13796;SHT30;40911;51.552;9.874;2022-07-23T04:21:38;16.42;94.32
13796;SHT30;40911;51.552;9.874;2022-07-23T04:24:00;16.15;95.57
13796;SHT30;40911;51.552;9.874;2022-07-23T04:26:23;16.17;95.89
13796;SHT30;40911;51.552;9.874;2022-07-23T04:28:44;16.35;95.15
13796;SHT30;40911;51.552;9.874;2022-07-23T04:31:06;15.97;95.28
13796;SHT30;40911;51.552;9.874;2022-07-23T04:33:27;16.24;95.13
13796;SHT30;40911;51.552;9.874;2022-07-23T04:35:49;16.08;95.26
13796;SHT30;40911;51.552;9.874;2022-07-23T04:38:11;16.04;95.54
13796;SHT30;40911;51.552;9.874;2022-07-23T04:40:32;16.18;94.81
13796;SHT30;40911;51.552;9.874;2022-07-23T04:42:55;16.22;94.84
13796;SHT30;40911;51.552;9.874;2022-07-23T04:45:17;16.29;95.11
13796;SHT30;40911;51.552;9.874;2022-07-23T04:47:38;16.08;95.21
13796;SHT30;40911;51.552;9.874;2022-07-23T04:50:00;16.26;94.45
13796;SHT30;40911;51.552;9.874;2022-07-23T04:52:22;16.45;94.45
13796;SHT30;40911;51.552;9.874;2022-07-23T04:54:43;16.60;93.90
13796;SHT30;40911;51.552;9.874;2022-07-23T04:57:05;16.26;95.03
13796;SHT30;40911;51.552;9.874;2022-07-23T04:59:28;16.42;94.91
13796;SHT30;40911;51.552;9.874;2022-07-23T05:01:50;16.19;94.68
13796;SHT30;40911;51.552;9.874;2022-07-23T05:04:11;16.43;94.05
13796;SHT30;40911;51.552;9.874;2022-07-23T05:06:33;16.42;93.56
13796;SHT30;40911;51.552;9.874;2022-07-23T05:08:54;16.32;94.27
13796;SHT30;40911;51.552;9.874;2022-07-23T05:11:16;16.50;93.96
13796;SHT30;40911;51.552;9.874;2022-07-23T05:13:38;16.47;94.06
13796;SHT30;40911;51.552;9.874;2022-07-23T05:16:00;16.64;93.06
13796;SHT30;40911;51.552;9.874;2022-07-23T05:18:22;16.66;93.69
13796;SHT30;40911;51.552;9.874;2022-07-23T05:20:43;16.59;93.46
13796;SHT30;40911;51.552;9.874;2022-07-23T05:23:06;16.68;93.60
13796;SHT30;40911;51.552;9.874;2022-07-23T05:25:28;16.66;95.02
13796;SHT30;40911;51.552;9.874;2022-07-23T05:27:49;16.60;95.02
13796;SHT30;40911;51.552;9.874;2022-07-23T05:30:11;16.60;94.26
13796;SHT30;40911;51.552;9.874;2022-07-23T05:32:34;16.67;93.78
13796;SHT30;40911;51.552;9.874;2022-07-23T05:34:57;16.30;93.13
13796;SHT30;40911;51.552;9.874;2022-07-23T05:37:19;16.73;92.59
13796;SHT30;40911;51.552;9.874;2022-07-23T05:39:40;16.71;92.30
13796;SHT30;40911;51.552;9.874;2022-07-23T05:42:02;16.71;93.00
13796;SHT30;40911;51.552;9.874;2022-07-23T05:44:24;16.74;92.57
13796;SHT30;40911;51.552;9.874;2022-07-23T05:46:47;16.85;92.35
13796;SHT30;40911;51.552;9.874;2022-07-23T05:49:10;16.91;92.66
13796;SHT30;40911;51.552;9.874;2022-07-23T05:51:32;17.05;91.85
13796;SHT30;40911;51.552;9.874;2022-07-23T05:53:54;16.97;92.59
13796;SHT30;40911;51.552;9.874;2022-07-23T05:56:16;17.10;91.85
13796;SHT30;40911;51.552;9.874;2022-07-23T05:58:38;17.54;90.81
13796;SHT30;40911;51.552;9.874;2022-07-23T06:00:59;18.10;90.40
13796;SHT30;40911;51.552;9.874;2022-07-23T06:03:21;18.12;90.43
13796;SHT30;40911;51.552;9.874;2022-07-23T06:05:44;18.19;88.52
13796;SHT30;40911;51.552;9.874;2022-07-23T06:08:06;18.04;88.93
13796;SHT30;40911;51.552;9.874;2022-07-23T06:10:27;18.35;88.64
13796;SHT30;40911;51.552;9.874;2022-07-23T06:12:49;18.80;88.09
13796;SHT30;40911;51.552;9.874;2022-07-23T06:15:10;19.04;87.90
13796;SHT30;40911;51.552;9.874;2022-07-23T06:17:32;18.84;87.66
13796;SHT30;40911;51.552;9.874;2022-07-23T06:19:54;19.07;86.47
13796;SHT30;40911;51.552;9.874;2022-07-23T06:22:17;19.24;86.58
13796;SHT30;40911;51.552;9.874;2022-07-23T06:24:39;19.45;85.38
13796;SHT30;40911;51.552;9.874;2022-07-23T06:27:00;19.24;86.78
13796;SHT30;40911;51.552;9.874;2022-07-23T06:29:22;19.42;85.72
13796;SHT30;40911;51.552;9.874;2022-07-23T06:31:44;19.62;85.47
13796;SHT30;40911;51.552;9.874;2022-07-23T06:34:05;19.34;85.70
13796;SHT30;40911;51.552;9.874;2022-07-23T06:36:27;18.96;86.37
13796;SHT30;40911;51.552;9.874;2022-07-23T06:38:50;19.39;85.66
13796;SHT30;40911;51.552;9.874;2022-07-23T06:41:12;19.41;85.37
13796;SHT30;40911;51.552;9.874;2022-07-23T06:43:33;19.36;85.23
13796;SHT30;40911;51.552;9.874;2022-07-23T06:45:55;19.42;85.05
13796;SHT30;40911;51.552;9.874;2022-07-23T06:48:16;19.38;85.91
13796;SHT30;40911;51.552;9.874;2022-07-23T06:50:38;19.59;85.34
13796;SHT30;40911;51.552;9.874;2022-07-23T06:53:00;19.70;84.45
13796;SHT30;40911;51.552;9.874;2022-07-23T06:55:23;19.79;83.90
13796;SHT30;40911;51.552;9.874;2022-07-23T06:57:45;19.91;84.40
13796;SHT30;40911;51.552;9.874;2022-07-23T07:00:10;19.86;84.14
13796;SHT30;40911;51.552;9.874;2022-07-23T07:02:32;20.07;82.57
13796;SHT30;40911;51.552;9.874;2022-07-23T07:04:54;19.89;82.82
13796;SHT30;40911;51.552;9.874;2022-07-23T07:07:17;19.87;82.52
13796;SHT30;40911;51.552;9.874;2022-07-23T07:09:39;20.49;81.30
13796;SHT30;40911;51.552;9.874;2022-07-23T07:12:03;20.87;80.37
13796;SHT30;40911;51.552;9.874;2022-07-23T07:14:27;20.49;81.28
13796;SHT30;40911;51.552;9.874;2022-07-23T07:16:49;20.72;80.98
13796;SHT30;40911;51.552;9.874;2022-07-23T07:19:11;20.47;81.01
13796;SHT30;40911;51.552;9.874;2022-07-23T07:21:33;21.13;78.79
13796;SHT30;40911;51.552;9.874;2022-07-23T07:23:54;20.90;82.99
13796;SHT30;40911;51.552;9.874;2022-07-23T07:26:16;21.21;80.82
13796;SHT30;40911;51.552;9.874;2022-07-23T07:28:39;21.37;80.46
13796;SHT30;40911;51.552;9.874;2022-07-23T07:31:01;20.97;80.12
13796;SHT30;40911;51.552;9.874;2022-07-23T07:33:22;21.89;78.29
13796;SHT30;40911;51.552;9.874;2022-07-23T07:35:44;21.95;77.83
13796;SHT30;40911;51.552;9.874;2022-07-23T07:38:06;21.82;77.44
13796;SHT30;40911;51.552;9.874;2022-07-23T07:40:27;22.28;77.79
13796;SHT30;40911;51.552;9.874;2022-07-23T07:42:51;22.26;76.45
13796;SHT30;40911;51.552;9.874;2022-07-23T07:45:14;22.26;76.45
13796;SHT30;40911;51.552;9.874;2022-07-23T07:47:36;22.95;74.85
13796;SHT30;40911;51.552;9.874;2022-07-23T07:49:58;22.58;74.83
13796;SHT30;40911;51.552;9.874;2022-07-23T07:52:21;21.76;74.81
13796;SHT30;40911;51.552;9.874;2022-07-23T07:54:42;21.55;75.24
13796;SHT30;40911;51.552;9.874;2022-07-23T07:57:04;21.86;75.25
13796;SHT30;40911;51.552;9.874;2022-07-23T07:59:26;22.08;77.21
13796;SHT30;40911;51.552;9.874;2022-07-23T08:01:49;22.76;75.59
13796;SHT30;40911;51.552;9.874;2022-07-23T08:04:11;21.93;74.68
13796;SHT30;40911;51.552;9.874;2022-07-23T08:06:32;22.19;74.51
13796;SHT30;40911;51.552;9.874;2022-07-23T08:08:54;22.26;75.13
13796;SHT30;40911;51.552;9.874;2022-07-23T08:11:16;22.47;72.16
13796;SHT30;40911;51.552;9.874;2022-07-23T08:13:38;23.30;72.16
13796;SHT30;40911;51.552;9.874;2022-07-23T08:16:00;22.76;72.50
13796;SHT30;40911;51.552;9.874;2022-07-23T08:18:23;23.07;70.61
13796;SHT30;40911;51.552;9.874;2022-07-23T08:20:44;22.82;70.42
13796;SHT30;40911;51.552;9.874;2022-07-23T08:23:07;23.12;69.53
13796;SHT30;40911;51.552;9.874;2022-07-23T08:25:30;23.75;67.64
13796;SHT30;40911;51.552;9.874;2022-07-23T08:27:53;22.03;69.59
13796;SHT30;40911;51.552;9.874;2022-07-23T08:30:16;22.88;68.33
13796;SHT30;40911;51.552;9.874;2022-07-23T08:32:48;22.67;70.67
13796;SHT30;40911;51.552;9.874;2022-07-23T08:35:12;22.79;70.46
13796;SHT30;40911;51.552;9.874;2022-07-23T08:37:34;22.23;71.55
13796;SHT30;40911;51.552;9.874;2022-07-23T08:39:55;22.30;71.80
13796;SHT30;40911;51.552;9.874;2022-07-23T08:42:18;23.07;69.48
13796;SHT30;40911;51.552;9.874;2022-07-23T08:44:42;23.37;69.46
13796;SHT30;40911;51.552;9.874;2022-07-23T08:47:06;23.06;69.71
13796;SHT30;40911;51.552;9.874;2022-07-23T08:49:27;22.99;70.02
13796;SHT30;40911;51.552;9.874;2022-07-23T08:51:51;22.58;70.32
13796;SHT30;40911;51.552;9.874;2022-07-23T08:54:13;21.81;71.98
13796;SHT30;40911;51.552;9.874;2022-07-23T08:56:35;21.27;73.16
13796;SHT30;40911;51.552;9.874;2022-07-23T08:58:57;21.75;72.97
13796;SHT30;40911;51.552;9.874;2022-07-23T09:01:19;22.06;72.35
13796;SHT30;40911;51.552;9.874;2022-07-23T09:03:40;22.10;72.24
13796;SHT30;40911;51.552;9.874;2022-07-23T09:06:06;23.16;69.20
13796;SHT30;40911;51.552;9.874;2022-07-23T09:08:36;23.03;69.23
13796;SHT30;40911;51.552;9.874;2022-07-23T09:10:59;23.06;67.93
13796;SHT30;40911;51.552;9.874;2022-07-23T09:13:34;22.64;70.50
13796;SHT30;40911;51.552;9.874;2022-07-23T09:15:57;22.79;69.47
13796;SHT30;40911;51.552;9.874;2022-07-23T09:18:20;21.57;71.43
13796;SHT30;40911;51.552;9.874;2022-07-23T09:20:49;21.96;72.38
13796;SHT30;40911;51.552;9.874;2022-07-23T09:23:10;21.61;72.04
13796;SHT30;40911;51.552;9.874;2022-07-23T09:25:33;22.17;72.16
13796;SHT30;40911;51.552;9.874;2022-07-23T09:27:57;22.41;69.92
13796;SHT30;40911;51.552;9.874;2022-07-23T09:30:21;24.02;68.10
13796;SHT30;40911;51.552;9.874;2022-07-23T09:32:43;23.26;69.88
13796;SHT30;40911;51.552;9.874;2022-07-23T09:35:05;22.54;69.34
13796;SHT30;40911;51.552;9.874;2022-07-23T09:37:30;21.81;71.35
13796;SHT30;40911;51.552;9.874;2022-07-23T09:40:04;22.02;69.89
13796;SHT30;40911;51.552;9.874;2022-07-23T09:42:28;23.13;69.06
13796;SHT30;40911;51.552;9.874;2022-07-23T09:44:50;23.16;66.37
13796;SHT30;40911;51.552;9.874;2022-07-23T09:47:13;23.13;67.85
13796;SHT30;40911;51.552;9.874;2022-07-23T09:49:34;23.43;65.75
13796;SHT30;40911;51.552;9.874;2022-07-23T09:51:58;23.58;64.31
13796;SHT30;40911;51.552;9.874;2022-07-23T09:54:26;23.88;64.92
13796;SHT30;40911;51.552;9.874;2022-07-23T09:56:49;24.30;63.30
13796;SHT30;40911;51.552;9.874;2022-07-23T09:59:13;24.39;63.61
13796;SHT30;40911;51.552;9.874;2022-07-23T10:01:37;23.43;65.60
13796;SHT30;40911;51.552;9.874;2022-07-23T10:04:01;24.57;64.95
13796;SHT30;40911;51.552;9.874;2022-07-23T10:06:23;23.46;64.53
13796;SHT30;40911;51.552;9.874;2022-07-23T10:08:47;23.61;63.83
13796;SHT30;40911;51.552;9.874;2022-07-23T10:11:10;24.04;64.16
13796;SHT30;40911;51.552;9.874;2022-07-23T10:13:34;24.19;63.98
13796;SHT30;40911;51.552;9.874;2022-07-23T10:16:16;23.67;64.29
13796;SHT30;40911;51.552;9.874;2022-07-23T10:18:39;25.11;63.96
13796;SHT30;40911;51.552;9.874;2022-07-23T10:21:05;23.65;62.39
13796;SHT30;40911;51.552;9.874;2022-07-23T10:23:33;24.02;63.03
13796;SHT30;40911;51.552;9.874;2022-07-23T10:26:02;23.97;63.08
13796;SHT30;40911;51.552;9.874;2022-07-23T10:28:40;24.15;63.14
13796;SHT30;40911;51.552;9.874;2022-07-23T10:31:08;24.70;61.33
13796;SHT30;40911;51.552;9.874;2022-07-23T10:33:46;25.04;61.33
13796;SHT30;40911;51.552;9.874;2022-07-23T10:36:18;24.37;61.53
13796;SHT30;40911;51.552;9.874;2022-07-23T10:38:48;24.23;62.92
13796;SHT30;40911;51.552;9.874;2022-07-23T10:41:12;24.77;61.56
13796;SHT30;40911;51.552;9.874;2022-07-23T10:43:33;24.20;62.22
13796;SHT30;40911;51.552;9.874;2022-07-23T10:45:57;24.64;60.81
13796;SHT30;40911;51.552;9.874;2022-07-23T10:48:39;24.16;59.97
13796;SHT30;40911;51.552;9.874;2022-07-23T10:51:08;25.02;60.43
13796;SHT30;40911;51.552;9.874;2022-07-23T10:53:52;24.77;59.47
13796;SHT30;40911;51.552;9.874;2022-07-23T10:56:15;24.60;61.10
13796;SHT30;40911;51.552;9.874;2022-07-23T10:58:54;24.54;58.62
13796;SHT30;40911;51.552;9.874;2022-07-23T11:01:34;25.10;59.44
13796;SHT30;40911;51.552;9.874;2022-07-23T11:03:57;25.73;57.26
13796;SHT30;40911;51.552;9.874;2022-07-23T11:06:19;25.29;58.84
13796;SHT30;40911;51.552;9.874;2022-07-23T11:08:41;24.33;59.97
13796;SHT30;40911;51.552;9.874;2022-07-23T11:11:10;25.28;58.86
13796;SHT30;40911;51.552;9.874;2022-07-23T11:13:56;25.11;58.14
13796;SHT30;40911;51.552;9.874;2022-07-23T11:16:25;24.75;58.59
13796;SHT30;40911;51.552;9.874;2022-07-23T11:19:07;26.11;57.20
13796;SHT30;40911;51.552;9.874;2022-07-23T11:21:46;25.31;58.10
13796;SHT30;40911;51.552;9.874;2022-07-23T11:24:10;25.12;58.13
13796;SHT30;40911;51.552;9.874;2022-07-23T11:26:43;25.42;58.32
13796;SHT30;40911;51.552;9.874;2022-07-23T11:29:41;25.29;58.09
13796;SHT30;40911;51.552;9.874;2022-07-23T11:32:05;26.22;57.63
13796;SHT30;40911;51.552;9.874;2022-07-23T11:34:30;25.12;58.62
13796;SHT30;40911;51.552;9.874;2022-07-23T11:36:52;25.88;55.86
13796;SHT30;40911;51.552;9.874;2022-07-23T11:39:14;26.32;55.95
13796;SHT30;40911;51.552;9.874;2022-07-23T11:41:43;27.32;56.01
13796;SHT30;40911;51.552;9.874;2022-07-23T11:44:24;26.90;56.38
13796;SHT30;40911;51.552;9.874;2022-07-23T11:46:54;26.20;56.48
13796;SHT30;40911;51.552;9.874;2022-07-23T11:49:16;27.07;56.87
13796;SHT30;40911;51.552;9.874;2022-07-23T11:51:39;27.07;54.30
13796;SHT30;40911;51.552;9.874;2022-07-23T11:54:05;26.36;55.20
13796;SHT30;40911;51.552;9.874;2022-07-23T11:56:27;27.06;54.36
13796;SHT30;40911;51.552;9.874;2022-07-23T11:58:54;25.97;55.22
13796;SHT30;40911;51.552;9.874;2022-07-23T12:01:17;25.84;55.71
13796;SHT30;40911;51.552;9.874;2022-07-23T12:03:49;26.42;54.98
13796;SHT30;40911;51.552;9.874;2022-07-23T12:06:10;25.59;55.66
13796;SHT30;40911;51.552;9.874;2022-07-23T12:08:41;26.60;54.46
13796;SHT30;40911;51.552;9.874;2022-07-23T12:11:02;27.12;54.46
13796;SHT30;40911;51.552;9.874;2022-07-23T12:13:24;25.93;55.13
13796;SHT30;40911;51.552;9.874;2022-07-23T12:15:48;26.41;55.01
13796;SHT30;40911;51.552;9.874;2022-07-23T12:18:12;26.92;54.10
13796;SHT30;40911;51.552;9.874;2022-07-23T12:20:35;27.01;54.29
13796;SHT30;40911;51.552;9.874;2022-07-23T12:22:59;27.97;55.54
13796;SHT30;40911;51.552;9.874;2022-07-23T12:25:24;28.07;52.84
13796;SHT30;40911;51.552;9.874;2022-07-23T12:27:56;26.48;53.25
13796;SHT30;40911;51.552;9.874;2022-07-23T12:30:23;27.38;53.04
13796;SHT30;40911;51.552;9.874;2022-07-23T12:32:46;27.27;51.87
13796;SHT30;40911;51.552;9.874;2022-07-23T12:35:09;26.44;53.31
13796;SHT30;40911;51.552;9.874;2022-07-23T12:37:32;26.63;54.02
13796;SHT30;40911;51.552;9.874;2022-07-23T12:39:54;27.39;52.58
13796;SHT30;40911;51.552;9.874;2022-07-23T12:42:17;28.28;51.60
13796;SHT30;40911;51.552;9.874;2022-07-23T12:44:39;27.80;51.18
13796;SHT30;40911;51.552;9.874;2022-07-23T12:47:04;26.59;52.04
13796;SHT30;40911;51.552;9.874;2022-07-23T12:49:27;27.37;51.94
13796;SHT30;40911;51.552;9.874;2022-07-23T12:51:48;26.28;52.48
13796;SHT30;40911;51.552;9.874;2022-07-23T12:54:10;27.51;52.31
13796;SHT30;40911;51.552;9.874;2022-07-23T12:56:33;28.05;51.34
13796;SHT30;40911;51.552;9.874;2022-07-23T12:58:58;26.70;51.38
13796;SHT30;40911;51.552;9.874;2022-07-23T13:01:23;27.47;51.11
13796;SHT30;40911;51.552;9.874;2022-07-23T13:03:55;26.80;51.65
13796;SHT30;40911;51.552;9.874;2022-07-23T13:06:17;27.49;51.07
13796;SHT30;40911;51.552;9.874;2022-07-23T13:08:39;27.70;51.55
13796;SHT30;40911;51.552;9.874;2022-07-23T13:11:03;27.83;51.38
13796;SHT30;40911;51.552;9.874;2022-07-23T13:13:30;27.86;50.16
13796;SHT30;40911;51.552;9.874;2022-07-23T13:15:53;26.74;50.73
13796;SHT30;40911;51.552;9.874;2022-07-23T13:18:15;27.44;50.13
13796;SHT30;40911;51.552;9.874;2022-07-23T13:20:38;27.38;49.52
13796;SHT30;40911;51.552;9.874;2022-07-23T13:23:00;27.68;50.01
13796;SHT30;40911;51.552;9.874;2022-07-23T13:25:22;28.20;47.56
13796;SHT30;40911;51.552;9.874;2022-07-23T13:27:44;28.74;48.58
13796;SHT30;40911;51.552;9.874;2022-07-23T13:30:07;28.56;48.05
13796;SHT30;40911;51.552;9.874;2022-07-23T13:32:32;27.68;47.14
13796;SHT30;40911;51.552;9.874;2022-07-23T13:34:54;27.73;48.56
13796;SHT30;40911;51.552;9.874;2022-07-23T13:37:15;29.19;48.86
13796;SHT30;40911;51.552;9.874;2022-07-23T13:39:37;28.91;47.52
13796;SHT30;40911;51.552;9.874;2022-07-23T13:41:59;28.12;47.46
13796;SHT30;40911;51.552;9.874;2022-07-23T13:44:20;27.85;47.97
13796;SHT30;40911;51.552;9.874;2022-07-23T13:46:42;27.39;47.59
13796;SHT30;40911;51.552;9.874;2022-07-23T13:49:05;28.20;48.39
13796;SHT30;40911;51.552;9.874;2022-07-23T13:51:27;27.66;49.40
13796;SHT30;40911;51.552;9.874;2022-07-23T13:53:49;27.92;47.97
13796;SHT30;40911;51.552;9.874;2022-07-23T13:56:11;27.51;48.85
13796;SHT30;40911;51.552;9.874;2022-07-23T13:58:32;28.18;47.96
13796;SHT30;40911;51.552;9.874;2022-07-23T14:00:54;28.37;47.99
13796;SHT30;40911;51.552;9.874;2022-07-23T14:03:16;27.49;47.85
13796;SHT30;40911;51.552;9.874;2022-07-23T14:05:40;27.89;47.53
13796;SHT30;40911;51.552;9.874;2022-07-23T14:08:02;27.85;47.61
13796;SHT30;40911;51.552;9.874;2022-07-23T14:10:24;27.96;48.02
13796;SHT30;40911;51.552;9.874;2022-07-23T14:12:47;27.92;48.30
13796;SHT30;40911;51.552;9.874;2022-07-23T14:15:09;28.47;48.11
13796;SHT30;40911;51.552;9.874;2022-07-23T14:17:31;27.57;49.44
13796;SHT30;40911;51.552;9.874;2022-07-23T14:19:53;27.86;49.63
13796;SHT30;40911;51.552;9.874;2022-07-23T14:22:16;28.18;48.47
13796;SHT30;40911;51.552;9.874;2022-07-23T14:24:37;28.33;48.68
13796;SHT30;40911;51.552;9.874;2022-07-23T14:27:00;28.52;48.03
13796;SHT30;40911;51.552;9.874;2022-07-23T14:29:22;28.86;48.08
13796;SHT30;40911;51.552;9.874;2022-07-23T14:31:43;28.40;47.38
13796;SHT30;40911;51.552;9.874;2022-07-23T14:34:05;28.09;47.90
13796;SHT30;40911;51.552;9.874;2022-07-23T14:36:27;28.05;47.68
13796;SHT30;40911;51.552;9.874;2022-07-23T14:38:50;26.57;49.99
13796;SHT30;40911;51.552;9.874;2022-07-23T14:41:12;26.96;49.25
13796;SHT30;40911;51.552;9.874;2022-07-23T14:43:34;27.35;49.66
13796;SHT30;40911;51.552;9.874;2022-07-23T14:45:56;27.41;49.92
13796;SHT30;40911;51.552;9.874;2022-07-23T14:48:17;28.27;48.82
13796;SHT30;40911;51.552;9.874;2022-07-23T14:50:39;28.65;49.13
13796;SHT30;40911;51.552;9.874;2022-07-23T14:53:01;27.97;48.80
13796;SHT30;40911;51.552;9.874;2022-07-23T14:55:24;27.92;49.08
13796;SHT30;40911;51.552;9.874;2022-07-23T14:57:46;27.69;49.22
13796;SHT30;40911;51.552;9.874;2022-07-23T15:00:09;28.24;48.80
13796;SHT30;40911;51.552;9.874;2022-07-23T15:02:31;28.56;49.11
13796;SHT30;40911;51.552;9.874;2022-07-23T15:04:53;28.89;49.57
13796;SHT30;40911;51.552;9.874;2022-07-23T15:07:15;28.09;48.33